CheckWX is a tool to help pilots better visualize weather data.  It is not intended as a substitute for an official pre-flight weather briefing.

21:29:48 UTC

KLPR METAR
Lorain County Regional Airport
Lorain/Elyria, Ohio, USA
Current

37 mins ago

KLPR 232053Z AUTO 28013G21KT 10SM SCT046 BKN055 28/16 A2996 RMK AO2 PK WND 26029/2015 SLP138 T02780156 55005
Observed
May-23 @ 20:53 UTC
Wind
  • 280° at 13 KTS
  • Gusting to 21 KTS
Visibility
10 SM
Flight Rules
VFR
Cloud Levels
  • Scattered at 4,600' AGL
  • Broken at 5,500' AGL
Temperature
28°C / 82°F
Dewpoint
16°C / 61°F
Heat Index
28°C / 82°F
Humidity
48%
Altimeter
29.96" Hg
Pressure
1014.52 hPa
Previous

2 hours ago

KLPR 231953Z AUTO 27017G25KT 10SM FEW043 SCT050 28/16 A2995 RMK AO2 PK WND 27030/1931 SLP138 T02780156
Observed
May-23 @ 19:53 UTC
Wind
  • 270° at 17 KTS
  • Gusting to 25 KTS
Visibility
10 SM
Flight Rules
VFR
Cloud Levels
  • Few at 4,300' AGL
  • Scattered at 5,000' AGL
Temperature
28°C / 82°F
Dewpoint
16°C / 61°F
Heat Index
28°C / 82°F
Humidity
48%
Altimeter
29.95" Hg
Pressure
1014.22 hPa
Previous

3 hours ago

KLPR 231853Z AUTO 29016G28KT 10SM BKN040 BKN049 BKN060 27/16 A2997 RMK AO2 PK WND 29028/1829 SLP142 T02720161
Observed
May-23 @ 18:53 UTC
Wind
  • 290° at 16 KTS
  • Gusting to 28 KTS
Visibility
10 SM
Flight Rules
VFR
Cloud Levels
  • Broken at 4,000' AGL
  • Broken at 4,900' AGL
  • Broken at 6,000' AGL
Temperature
27°C / 81°F
Dewpoint
16°C / 61°F
Heat Index
28°C / 82°F
Humidity
51%
Altimeter
29.97" Hg
Pressure
1014.92 hPa